sensor_id;sensor_type;location;lat;lon;timestamp;temperature;humidity
64634;DHT22;51043;52.406;9.690;2024-03-23T00:52:26;7.50;99.90
64634;DHT22;51043;52.406;9.690;2024-03-23T00:54:52;7.50;99.90
64634;DHT22;51043;52.406;9.690;2024-03-23T00:57:19;7.50;99.90
64634;DHT22;51043;52.406;9.690;2024-03-23T00:59:45;7.40;99.90
64634;DHT22;51043;52.406;9.690;2024-03-23T01:02:12;7.40;99.90
64634;DHT22;51043;52.406;9.690;2024-03-23T01:04:41;7.40;99.90
64634;DHT22;51043;52.406;9.690;2024-03-23T01:07:08;7.40;99.90
64634;DHT22;51043;52.406;9.690;2024-03-23T01:09:35;7.40;99.90
64634;DHT22;51043;52.406;9.690;2024-03-23T01:12:06;7.40;99.90
64634;DHT22;51043;52.406;9.690;2024-03-23T01:14:33;7.30;99.90
64634;DHT22;51043;52.406;9.690;2024-03-23T01:17:01;7.30;99.90
64634;DHT22;51043;52.406;9.690;2024-03-23T01:19:28;7.20;99.90
64634;DHT22;51043;52.406;9.690;2024-03-23T01:21:56;7.20;99.90
64634;DHT22;51043;52.406;9.690;2024-03-23T01:24:22;7.30;99.90
64634;DHT22;51043;52.406;9.690;2024-03-23T01:26:50;7.20;99.90
64634;DHT22;51043;52.406;9.690;2024-03-23T01:29:16;7.20;99.90
64634;DHT22;51043;52.406;9.690;2024-03-23T01:31:43;7.10;99.90
64634;DHT22;51043;52.406;9.690;2024-03-23T01:34:09;7.10;99.90
64634;DHT22;51043;52.406;9.690;2024-03-23T01:36:36;7.00;99.90
64634;DHT22;51043;52.406;9.690;2024-03-23T01:39:04;7.00;99.90
64634;DHT22;51043;52.406;9.690;2024-03-23T01:41:31;6.90;99.90
64634;DHT22;51043;52.406;9.690;2024-03-23T01:44:03;6.90;99.90
64634;DHT22;51043;52.406;9.690;2024-03-23T01:46:33;6.90;99.90
64634;DHT22;51043;52.406;9.690;2024-03-23T01:49:00;6.80;99.90
64634;DHT22;51043;52.406;9.690;2024-03-23T01:51:27;6.80;99.90
64634;DHT22;51043;52.406;9.690;2024-03-23T01:53:57;6.90;99.90
64634;DHT22;51043;52.406;9.690;2024-03-23T01:56:28;6.90;99.90
64634;DHT22;51043;52.406;9.690;2024-03-23T01:58:59;6.90;99.90
64634;DHT22;51043;52.406;9.690;2024-03-23T02:01:26;6.90;99.90
64634;DHT22;51043;52.406;9.690;2024-03-23T02:03:52;7.00;99.90
64634;DHT22;51043;52.406;9.690;2024-03-23T02:06:20;7.00;99.90
64634;DHT22;51043;52.406;9.690;2024-03-23T02:08:47;7.00;99.90
64634;DHT22;51043;52.406;9.690;2024-03-23T02:11:14;7.00;99.90
64634;DHT22;51043;52.406;9.690;2024-03-23T02:13:42;7.00;99.90
64634;DHT22;51043;52.406;9.690;2024-03-23T02:16:11;7.00;99.90
64634;DHT22;51043;52.406;9.690;2024-03-23T02:18:37;7.00;99.90
64634;DHT22;51043;52.406;9.690;2024-03-23T02:21:08;7.00;99.90
64634;DHT22;51043;52.406;9.690;2024-03-23T02:23:37;6.90;99.90
64634;DHT22;51043;52.406;9.690;2024-03-23T02:26:07;7.20;99.90
64634;DHT22;51043;52.406;9.690;2024-03-23T02:28:33;6.90;99.90
64634;DHT22;51043;52.406;9.690;2024-03-23T02:31:01;6.80;99.90
64634;DHT22;51043;52.406;9.690;2024-03-23T02:33:28;6.80;99.90
64634;DHT22;51043;52.406;9.690;2024-03-23T02:35:56;6.80;99.90
64634;DHT22;51043;52.406;9.690;2024-03-23T02:38:22;6.80;99.90
64634;DHT22;51043;52.406;9.690;2024-03-23T02:40:51;6.80;99.90
64634;DHT22;51043;52.406;9.690;2024-03-23T02:43:18;6.70;99.90
64634;DHT22;51043;52.406;9.690;2024-03-23T02:45:46;6.70;99.90
64634;DHT22;51043;52.406;9.690;2024-03-23T02:48:13;6.60;99.90
64634;DHT22;51043;52.406;9.690;2024-03-23T02:50:40;6.60;99.90
64634;DHT22;51043;52.406;9.690;2024-03-23T02:53:06;6.60;99.90
64634;DHT22;51043;52.406;9.690;2024-03-23T02:55:34;6.60;99.90
64634;DHT22;51043;52.406;9.690;2024-03-23T02:58:02;6.70;99.90
64634;DHT22;51043;52.406;9.690;2024-03-23T03:00:32;6.60;99.90
64634;DHT22;51043;52.406;9.690;2024-03-23T03:03:01;6.60;99.90
64634;DHT22;51043;52.406;9.690;2024-03-23T03:05:31;6.70;99.90
64634;DHT22;51043;52.406;9.690;2024-03-23T03:07:57;6.70;99.90
64634;DHT22;51043;52.406;9.690;2024-03-23T03:10:26;6.80;99.90
64634;DHT22;51043;52.406;9.690;2024-03-23T03:12:52;6.70;99.90
64634;DHT22;51043;52.406;9.690;2024-03-23T03:15:21;6.80;99.90
64634;DHT22;51043;52.406;9.690;2024-03-23T03:17:47;6.80;99.90
64634;DHT22;51043;52.406;9.690;2024-03-23T03:20:15;6.80;99.90
64634;DHT22;51043;52.406;9.690;2024-03-23T03:22:43;6.70;99.90
64634;DHT22;51043;52.406;9.690;2024-03-23T03:25:10;6.70;99.90
64634;DHT22;51043;52.406;9.690;2024-03-23T03:27:36;6.70;99.90
64634;DHT22;51043;52.406;9.690;2024-03-23T03:30:04;6.70;99.90
64634;DHT22;51043;52.406;9.690;2024-03-23T03:32:34;6.70;99.90
64634;DHT22;51043;52.406;9.690;2024-03-23T03:35:02;6.60;99.90
64634;DHT22;51043;52.406;9.690;2024-03-23T03:37:28;6.60;99.90
64634;DHT22;51043;52.406;9.690;2024-03-23T03:39:56;6.60;99.90
64634;DHT22;51043;52.406;9.690;2024-03-23T03:42:22;6.50;99.90
64634;DHT22;51043;52.406;9.690;2024-03-23T03:44:49;6.50;99.90
64634;DHT22;51043;52.406;9.690;2024-03-23T03:47:16;6.40;99.90
64634;DHT22;51043;52.406;9.690;2024-03-23T03:49:47;6.40;99.90
64634;DHT22;51043;52.406;9.690;2024-03-23T03:52:13;6.40;99.90
64634;DHT22;51043;52.406;9.690;2024-03-23T03:54:43;6.40;99.90
64634;DHT22;51043;52.406;9.690;2024-03-23T03:57:09;6.50;99.90
64634;DHT22;51043;52.406;9.690;2024-03-23T03:59:36;6.40;99.90
64634;DHT22;51043;52.406;9.690;2024-03-23T04:02:03;6.50;99.90
64634;DHT22;51043;52.406;9.690;2024-03-23T04:04:30;6.50;99.90
64634;DHT22;51043;52.406;9.690;2024-03-23T04:07:00;6.50;99.90
64634;DHT22;51043;52.406;9.690;2024-03-23T04:09:27;6.50;99.90
64634;DHT22;51043;52.406;9.690;2024-03-23T04:11:53;6.50;99.90
64634;DHT22;51043;52.406;9.690;2024-03-23T04:14:20;6.50;99.90
64634;DHT22;51043;52.406;9.690;2024-03-23T04:16:46;6.40;99.90
64634;DHT22;51043;52.406;9.690;2024-03-23T04:19:14;6.40;99.90
64634;DHT22;51043;52.406;9.690;2024-03-23T04:21:40;6.40;99.90
64634;DHT22;51043;52.406;9.690;2024-03-23T04:24:09;6.40;99.90
64634;DHT22;51043;52.406;9.690;2024-03-23T04:26:42;6.40;99.90
64634;DHT22;51043;52.406;9.690;2024-03-23T04:29:11;6.40;99.90
64634;DHT22;51043;52.406;9.690;2024-03-23T04:31:38;6.40;99.90
64634;DHT22;51043;52.406;9.690;2024-03-23T04:34:06;6.40;99.90
64634;DHT22;51043;52.406;9.690;2024-03-23T04:36:33;6.40;99.90
64634;DHT22;51043;52.406;9.690;2024-03-23T04:39:01;6.40;99.90
64634;DHT22;51043;52.406;9.690;2024-03-23T04:41:30;6.40;99.90
64634;DHT22;51043;52.406;9.690;2024-03-23T04:43:57;6.40;99.90
64634;DHT22;51043;52.406;9.690;2024-03-23T04:46:25;6.40;99.90
64634;DHT22;51043;52.406;9.690;2024-03-23T04:48:51;6.40;99.90
64634;DHT22;51043;52.406;9.690;2024-03-23T04:51:22;6.50;99.90
64634;DHT22;51043;52.406;9.690;2024-03-23T04:53:49;6.50;99.90
64634;DHT22;51043;52.406;9.690;2024-03-23T04:56:16;6.40;99.90
64634;DHT22;51043;52.406;9.690;2024-03-23T04:58:46;6.40;99.90
64634;DHT22;51043;52.406;9.690;2024-03-23T05:01:13;6.40;99.90
64634;DHT22;51043;52.406;9.690;2024-03-23T05:03:42;6.30;99.90
64634;DHT22;51043;52.406;9.690;2024-03-23T05:06:08;6.20;99.90
64634;DHT22;51043;52.406;9.690;2024-03-23T05:08:35;6.10;99.90
64634;DHT22;51043;52.406;9.690;2024-03-23T05:11:01;6.10;99.90
64634;DHT22;51043;52.406;9.690;2024-03-23T05:13:31;6.00;99.90
64634;DHT22;51043;52.406;9.690;2024-03-23T05:16:00;5.90;99.90
64634;DHT22;51043;52.406;9.690;2024-03-23T05:18:27;5.80;99.90
64634;DHT22;51043;52.406;9.690;2024-03-23T05:20:56;5.70;99.90
64634;DHT22;51043;52.406;9.690;2024-03-23T05:23:23;5.60;99.90
64634;DHT22;51043;52.406;9.690;2024-03-23T05:25:52;5.60;99.90
64634;DHT22;51043;52.406;9.690;2024-03-23T05:28:19;5.50;99.90
64634;DHT22;51043;52.406;9.690;2024-03-23T05:30:50;5.40;99.90
64634;DHT22;51043;52.406;9.690;2024-03-23T05:33:18;5.40;99.90
64634;DHT22;51043;52.406;9.690;2024-03-23T05:35:45;5.50;99.90
64634;DHT22;51043;52.406;9.690;2024-03-23T05:38:12;5.40;99.90
64634;DHT22;51043;52.406;9.690;2024-03-23T05:40:39;5.40;99.90
64634;DHT22;51043;52.406;9.690;2024-03-23T05:43:06;5.40;99.90
64634;DHT22;51043;52.406;9.690;2024-03-23T05:45:33;5.50;99.90
64634;DHT22;51043;52.406;9.690;2024-03-23T05:48:00;5.50;99.90
64634;DHT22;51043;52.406;9.690;2024-03-23T05:50:30;5.40;99.90
64634;DHT22;51043;52.406;9.690;2024-03-23T05:52:56;5.50;99.90
64634;DHT22;51043;52.406;9.690;2024-03-23T05:55:27;5.40;99.90
64634;DHT22;51043;52.406;9.690;2024-03-23T05:57:53;5.30;99.90
64634;DHT22;51043;52.406;9.690;2024-03-23T06:00:20;5.20;99.90
64634;DHT22;51043;52.406;9.690;2024-03-23T06:02:46;5.20;99.90
64634;DHT22;51043;52.406;9.690;2024-03-23T06:05:14;5.30;99.90
64634;DHT22;51043;52.406;9.690;2024-03-23T06:07:41;5.30;99.90
64634;DHT22;51043;52.406;9.690;2024-03-23T06:10:09;5.40;99.90
64634;DHT22;51043;52.406;9.690;2024-03-23T06:12:36;5.40;99.90
64634;DHT22;51043;52.406;9.690;2024-03-23T06:15:06;5.40;99.90
64634;DHT22;51043;52.406;9.690;2024-03-23T06:17:37;5.50;99.90
64634;DHT22;51043;52.406;9.690;2024-03-23T06:20:05;5.60;99.90
64634;DHT22;51043;52.406;9.690;2024-03-23T06:22:32;5.70;99.90
64634;DHT22;51043;52.406;9.690;2024-03-23T06:25:01;5.70;99.90
64634;DHT22;51043;52.406;9.690;2024-03-23T06:27:27;5.70;99.90
64634;DHT22;51043;52.406;9.690;2024-03-23T06:29:54;5.80;99.90
64634;DHT22;51043;52.406;9.690;2024-03-23T06:32:21;5.80;99.90
64634;DHT22;51043;52.406;9.690;2024-03-23T06:34:48;5.90;99.90
64634;DHT22;51043;52.406;9.690;2024-03-23T06:37:15;6.00;99.90
64634;DHT22;51043;52.406;9.690;2024-03-23T06:39:42;6.00;99.90
64634;DHT22;51043;52.406;9.690;2024-03-23T06:42:10;6.10;99.90
64634;DHT22;51043;52.406;9.690;2024-03-23T06:44:37;6.10;99.90
64634;DHT22;51043;52.406;9.690;2024-03-23T06:47:04;6.20;99.90
64634;DHT22;51043;52.406;9.690;2024-03-23T06:49:31;6.30;99.90
64634;DHT22;51043;52.406;9.690;2024-03-23T06:51:58;6.30;99.90
64634;DHT22;51043;52.406;9.690;2024-03-23T06:54:26;6.40;99.90
64634;DHT22;51043;52.406;9.690;2024-03-23T06:56:52;6.50;99.90
64634;DHT22;51043;52.406;9.690;2024-03-23T06:59:23;6.40;99.90
64634;DHT22;51043;52.406;9.690;2024-03-23T07:01:50;6.50;99.90
64634;DHT22;51043;52.406;9.690;2024-03-23T07:04:18;6.50;99.90
64634;DHT22;51043;52.406;9.690;2024-03-23T07:06:46;6.50;99.90
64634;DHT22;51043;52.406;9.690;2024-03-23T07:09:13;6.60;99.90
64634;DHT22;51043;52.406;9.690;2024-03-23T07:11:39;6.60;99.90
64634;DHT22;51043;52.406;9.690;2024-03-23T07:14:07;6.60;99.90
64634;DHT22;51043;52.406;9.690;2024-03-23T07:16:35;6.70;99.90
64634;DHT22;51043;52.406;9.690;2024-03-23T07:19:03;6.70;99.90
64634;DHT22;51043;52.406;9.690;2024-03-23T07:21:29;6.80;99.90
64634;DHT22;51043;52.406;9.690;2024-03-23T07:23:58;6.90;99.90
64634;DHT22;51043;52.406;9.690;2024-03-23T07:26:25;7.00;99.90
64634;DHT22;51043;52.406;9.690;2024-03-23T07:28:52;7.00;99.90
64634;DHT22;51043;52.406;9.690;2024-03-23T07:31:20;7.10;99.90
64634;DHT22;51043;52.406;9.690;2024-03-23T07:33:51;7.20;99.90
64634;DHT22;51043;52.406;9.690;2024-03-23T07:36:17;7.30;99.90
64634;DHT22;51043;52.406;9.690;2024-03-23T07:38:45;7.30;99.90
64634;DHT22;51043;52.406;9.690;2024-03-23T07:41:14;7.30;99.90
64634;DHT22;51043;52.406;9.690;2024-03-23T07:43:43;7.20;99.90
64634;DHT22;51043;52.406;9.690;2024-03-23T07:46:10;7.20;99.90
64634;DHT22;51043;52.406;9.690;2024-03-23T07:48:38;7.20;99.90
64634;DHT22;51043;52.406;9.690;2024-03-23T07:51:08;7.20;99.90
64634;DHT22;51043;52.406;9.690;2024-03-23T07:53:37;7.10;99.90
64634;DHT22;51043;52.406;9.690;2024-03-23T07:56:06;7.00;99.90
64634;DHT22;51043;52.406;9.690;2024-03-23T07:58:33;7.00;99.90
64634;DHT22;51043;52.406;9.690;2024-03-23T08:01:04;7.00;99.90
64634;DHT22;51043;52.406;9.690;2024-03-23T08:03:34;7.00;99.90
64634;DHT22;51043;52.406;9.690;2024-03-23T08:06:10;7.10;99.90
64634;DHT22;51043;52.406;9.690;2024-03-23T08:08:40;7.10;99.90
64634;DHT22;51043;52.406;9.690;2024-03-23T08:11:07;7.00;99.90
64634;DHT22;51043;52.406;9.690;2024-03-23T08:13:40;7.00;99.90
64634;DHT22;51043;52.406;9.690;2024-03-23T08:16:06;7.00;99.90
64634;DHT22;51043;52.406;9.690;2024-03-23T08:18:39;7.10;99.90
64634;DHT22;51043;52.406;9.690;2024-03-23T08:21:07;7.30;99.90
64634;DHT22;51043;52.406;9.690;2024-03-23T08:23:36;7.70;99.90
64634;DHT22;51043;52.406;9.690;2024-03-23T08:26:05;8.40;99.90
64634;DHT22;51043;52.406;9.690;2024-03-23T08:28:33;9.30;99.90
64634;DHT22;51043;52.406;9.690;2024-03-23T08:31:03;10.40;99.90
64634;DHT22;51043;52.406;9.690;2024-03-23T08:33:31;10.90;99.90
64634;DHT22;51043;52.406;9.690;2024-03-23T08:35:58;11.20;99.90
64634;DHT22;51043;52.406;9.690;2024-03-23T08:38:28;10.80;99.90
64634;DHT22;51043;52.406;9.690;2024-03-23T08:40:58;10.10;99.90
64634;DHT22;51043;52.406;9.690;2024-03-23T08:43:28;10.40;99.90
64634;DHT22;51043;52.406;9.690;2024-03-23T08:46:03;10.70;99.90
64634;DHT22;51043;52.406;9.690;2024-03-23T08:48:31;10.40;99.90
64634;DHT22;51043;52.406;9.690;2024-03-23T08:51:03;9.90;99.90
64634;DHT22;51043;52.406;9.690;2024-03-23T08:53:33;9.60;99.90
64634;DHT22;51043;52.406;9.690;2024-03-23T08:56:02;9.20;99.90
64634;DHT22;51043;52.406;9.690;2024-03-23T08:58:31;8.90;99.90
64634;DHT22;51043;52.406;9.690;2024-03-23T09:01:03;8.60;99.90
64634;DHT22;51043;52.406;9.690;2024-03-23T09:03:31;9.50;99.90
64634;DHT22;51043;52.406;9.690;2024-03-23T09:05:57;10.60;99.90
64634;DHT22;51043;52.406;9.690;2024-03-23T09:08:25;10.70;99.90
64634;DHT22;51043;52.406;9.690;2024-03-23T09:10:53;10.30;99.90
64634;DHT22;51043;52.406;9.690;2024-03-23T09:13:20;9.90;99.90
64634;DHT22;51043;52.406;9.690;2024-03-23T09:15:47;9.60;99.90
64634;DHT22;51043;52.406;9.690;2024-03-23T09:18:15;9.80;99.90
64634;DHT22;51043;52.406;9.690;2024-03-23T09:20:41;10.80;99.90
64634;DHT22;51043;52.406;9.690;2024-03-23T09:23:08;12.00;99.90
64634;DHT22;51043;52.406;9.690;2024-03-23T09:25:37;13.10;99.90
64634;DHT22;51043;52.406;9.690;2024-03-23T09:28:07;13.50;99.90
64634;DHT22;51043;52.406;9.690;2024-03-23T09:30:34;13.40;99.90
64634;DHT22;51043;52.406;9.690;2024-03-23T09:33:03;12.50;99.90
64634;DHT22;51043;52.406;9.690;2024-03-23T09:35:29;11.50;99.90
64634;DHT22;51043;52.406;9.690;2024-03-23T09:37:57;10.40;99.90
64634;DHT22;51043;52.406;9.690;2024-03-23T09:40:23;9.50;99.90
64634;DHT22;51043;52.406;9.690;2024-03-23T09:42:53;9.10;99.90
64634;DHT22;51043;52.406;9.690;2024-03-23T09:45:26;9.30;99.90
64634;DHT22;51043;52.406;9.690;2024-03-23T09:47:56;9.70;99.90
64634;DHT22;51043;52.406;9.690;2024-03-23T09:50:22;10.30;99.90
64634;DHT22;51043;52.406;9.690;2024-03-23T09:52:52;10.70;99.90
64634;DHT22;51043;52.406;9.690;2024-03-23T09:55:18;10.50;99.90
64634;DHT22;51043;52.406;9.690;2024-03-23T09:57:47;11.10;99.90
64634;DHT22;51043;52.406;9.690;2024-03-23T10:00:15;11.40;99.90
64634;DHT22;51043;52.406;9.690;2024-03-23T10:02:45;10.90;99.90
64634;DHT22;51043;52.406;9.690;2024-03-23T10:05:20;10.80;99.90
64634;DHT22;51043;52.406;9.690;2024-03-23T10:07:49;10.50;99.90
64634;DHT22;51043;52.406;9.690;2024-03-23T10:10:16;10.10;99.90
64634;DHT22;51043;52.406;9.690;2024-03-23T10:12:47;10.60;99.90
64634;DHT22;51043;52.406;9.690;2024-03-23T10:15:21;11.50;99.90
64634;DHT22;51043;52.406;9.690;2024-03-23T10:17:50;12.20;99.90
64634;DHT22;51043;52.406;9.690;2024-03-23T10:20:20;13.00;99.90
64634;DHT22;51043;52.406;9.690;2024-03-23T10:22:48;13.10;99.90
64634;DHT22;51043;52.406;9.690;2024-03-23T10:25:15;13.40;99.90
64634;DHT22;51043;52.406;9.690;2024-03-23T10:27:43;13.60;99.90
64634;DHT22;51043;52.406;9.690;2024-03-23T10:30:12;14.00;99.90
64634;DHT22;51043;52.406;9.690;2024-03-23T10:32:41;14.30;99.90
64634;DHT22;51043;52.406;9.690;2024-03-23T10:35:17;14.20;99.90
64634;DHT22;51043;52.406;9.690;2024-03-23T10:37:46;14.50;99.30
64634;DHT22;51043;52.406;9.690;2024-03-23T10:40:16;14.60;98.80
64634;DHT22;51043;52.406;9.690;2024-03-23T10:42:45;14.30;97.80
64634;DHT22;51043;52.406;9.690;2024-03-23T10:45:12;12.60;99.90
64634;DHT22;51043;52.406;9.690;2024-03-23T10:47:41;10.80;99.90
64634;DHT22;51043;52.406;9.690;2024-03-23T10:50:09;9.30;99.90
64634;DHT22;51043;52.406;9.690;2024-03-23T10:52:37;8.60;99.90
64634;DHT22;51043;52.406;9.690;2024-03-23T10:55:10;7.50;99.90
64634;DHT22;51043;52.406;9.690;2024-03-23T10:57:45;7.10;99.90
64634;DHT22;51043;52.406;9.690;2024-03-23T11:00:14;6.60;99.90
64634;DHT22;51043;52.406;9.690;2024-03-23T11:02:43;6.30;99.90
64634;DHT22;51043;52.406;9.690;2024-03-23T11:05:28;6.30;99.90
64634;DHT22;51043;52.406;9.690;2024-03-23T11:07:57;6.30;99.90
64634;DHT22;51043;52.406;9.690;2024-03-23T11:10:27;6.70;99.90
64634;DHT22;51043;52.406;9.690;2024-03-23T11:12:56;8.10;99.90
64634;DHT22;51043;52.406;9.690;2024-03-23T11:15:22;9.70;99.90
64634;DHT22;51043;52.406;9.690;2024-03-23T11:18:04;9.70;99.90
64634;DHT22;51043;52.406;9.690;2024-03-23T11:20:34;8.80;99.90
64634;DHT22;51043;52.406;9.690;2024-03-23T11:23:04;8.10;99.90
64634;DHT22;51043;52.406;9.690;2024-03-23T11:25:30;7.50;99.90
64634;DHT22;51043;52.406;9.690;2024-03-23T11:28:10;7.20;99.90
64634;DHT22;51043;52.406;9.690;2024-03-23T11:30:37;7.10;99.90
64634;DHT22;51043;52.406;9.690;2024-03-23T11:33:05;7.40;99.90
64634;DHT22;51043;52.406;9.690;2024-03-23T11:35:33;8.80;99.90
64634;DHT22;51043;52.406;9.690;2024-03-23T11:38:07;10.70;99.90
64634;DHT22;51043;52.406;9.690;2024-03-23T11:40:36;12.00;99.90
64634;DHT22;51043;52.406;9.690;2024-03-23T11:43:07;11.90;99.90
64634;DHT22;51043;52.406;9.690;2024-03-23T11:45:37;11.20;99.90
64634;DHT22;51043;52.406;9.690;2024-03-23T11:48:07;9.90;99.90
64634;DHT22;51043;52.406;9.690;2024-03-23T11:50:37;8.30;99.90
64634;DHT22;51043;52.406;9.690;2024-03-23T11:53:14;7.20;99.90
64634;DHT22;51043;52.406;9.690;2024-03-23T11:55:43;7.20;99.90
64634;DHT22;51043;52.406;9.690;2024-03-23T11:58:11;7.80;99.90
64634;DHT22;51043;52.406;9.690;2024-03-23T12:00:38;7.90;99.90
64634;DHT22;51043;52.406;9.690;2024-03-23T12:03:10;7.70;99.90
64634;DHT22;51043;52.406;9.690;2024-03-23T12:05:37;7.80;99.90
64634;DHT22;51043;52.406;9.690;2024-03-23T12:08:22;8.70;99.90
64634;DHT22;51043;52.406;9.690;2024-03-23T12:10:51;10.50;99.90
64634;DHT22;51043;52.406;9.690;2024-03-23T12:13:20;11.70;99.90
64634;DHT22;51043;52.406;9.690;2024-03-23T12:15:49;10.80;99.90
64634;DHT22;51043;52.406;9.690;2024-03-23T12:18:17;9.80;99.90
64634;DHT22;51043;52.406;9.690;2024-03-23T12:20:47;9.00;99.90
64634;DHT22;51043;52.406;9.690;2024-03-23T12:23:15;9.10;99.90
64634;DHT22;51043;52.406;9.690;2024-03-23T12:25:48;10.50;99.90
64634;DHT22;51043;52.406;9.690;2024-03-23T12:28:16;11.70;99.90
64634;DHT22;51043;52.406;9.690;2024-03-23T12:30:46;11.70;99.90
64634;DHT22;51043;52.406;9.690;2024-03-23T12:33:13;11.30;99.90
64634;DHT22;51043;52.406;9.690;2024-03-23T12:35:39;10.60;99.90
64634;DHT22;51043;52.406;9.690;2024-03-23T12:38:07;10.20;99.90
64634;DHT22;51043;52.406;9.690;2024-03-23T12:40:33;10.00;99.90
64634;DHT22;51043;52.406;9.690;2024-03-23T12:43:02;9.70;99.90
64634;DHT22;51043;52.406;9.690;2024-03-23T12:45:30;9.30;99.90
64634;DHT22;51043;52.406;9.690;2024-03-23T12:47:57;8.60;99.90
64634;DHT22;51043;52.406;9.690;2024-03-23T12:50:26;8.40;99.90
64634;DHT22;51043;52.406;9.690;2024-03-23T12:52:55;8.40;99.90
64634;DHT22;51043;52.406;9.690;2024-03-23T12:55:21;8.40;99.90
64634;DHT22;51043;52.406;9.690;2024-03-23T12:57:49;8.30;99.90
64634;DHT22;51043;52.406;9.690;2024-03-23T13:00:17;8.20;99.90
64634;DHT22;51043;52.406;9.690;2024-03-23T13:02:47;8.20;99.90
64634;DHT22;51043;52.406;9.690;2024-03-23T13:05:14;8.30;99.90
64634;DHT22;51043;52.406;9.690;2024-03-23T13:07:41;8.50;99.90
64634;DHT22;51043;52.406;9.690;2024-03-23T13:10:09;8.50;99.90
64634;DHT22;51043;52.406;9.690;2024-03-23T13:12:37;8.60;99.90
64634;DHT22;51043;52.406;9.690;2024-03-23T13:15:04;8.60;99.90
64634;DHT22;51043;52.406;9.690;2024-03-23T13:17:35;8.70;99.90
64634;DHT22;51043;52.406;9.690;2024-03-23T13:20:04;8.70;99.90
64634;DHT22;51043;52.406;9.690;2024-03-23T13:22:33;8.80;99.90
64634;DHT22;51043;52.406;9.690;2024-03-23T13:25:00;8.80;99.90
64634;DHT22;51043;52.406;9.690;2024-03-23T13:27:29;8.60;99.90
64634;DHT22;51043;52.406;9.690;2024-03-23T13:29:56;8.70;99.90
64634;DHT22;51043;52.406;9.690;2024-03-23T13:32:23;8.60;99.90
64634;DHT22;51043;52.406;9.690;2024-03-23T13:34:51;8.50;99.90
64634;DHT22;51043;52.406;9.690;2024-03-23T13:37:19;8.60;99.90
64634;DHT22;51043;52.406;9.690;2024-03-23T13:39:45;8.70;99.90
64634;DHT22;51043;52.406;9.690;2024-03-23T13:42:13;8.90;99.90
64634;DHT22;51043;52.406;9.690;2024-03-23T13:44:42;9.00;99.90
64634;DHT22;51043;52.406;9.690;2024-03-23T13:47:10;9.00;99.90
64634;DHT22;51043;52.406;9.690;2024-03-23T13:49:36;9.10;99.90
64634;DHT22;51043;52.406;9.690;2024-03-23T13:52:05;9.10;99.90
64634;DHT22;51043;52.406;9.690;2024-03-23T13:54:33;9.20;99.90
64634;DHT22;51043;52.406;9.690;2024-03-23T13:57:01;9.30;99.90
64634;DHT22;51043;52.406;9.690;2024-03-23T13:59:27;9.60;99.90
64634;DHT22;51043;52.406;9.690;2024-03-23T14:01:58;9.80;99.90
64634;DHT22;51043;52.406;9.690;2024-03-23T14:04:26;9.90;99.90
64634;DHT22;51043;52.406;9.690;2024-03-23T14:06:53;9.90;99.90
64634;DHT22;51043;52.406;9.690;2024-03-23T14:09:21;10.00;99.90
64634;DHT22;51043;52.406;9.690;2024-03-23T14:11:50;10.10;99.90
64634;DHT22;51043;52.406;9.690;2024-03-23T14:14:17;9.90;99.90
64634;DHT22;51043;52.406;9.690;2024-03-23T14:16:45;9.70;99.90
64634;DHT22;51043;52.406;9.690;2024-03-23T14:19:12;9.60;99.90
64634;DHT22;51043;52.406;9.690;2024-03-23T14:21:41;9.40;99.90
64634;DHT22;51043;52.406;9.690;2024-03-23T14:24:07;9.20;99.90
64634;DHT22;51043;52.406;9.690;2024-03-23T14:26:38;9.00;99.90
64634;DHT22;51043;52.406;9.690;2024-03-23T14:29:04;9.10;99.90
64634;DHT22;51043;52.406;9.690;2024-03-23T14:31:32;9.00;99.90
64634;DHT22;51043;52.406;9.690;2024-03-23T14:33:58;8.70;99.90
64634;DHT22;51043;52.406;9.690;2024-03-23T14:36:26;8.50;99.90
64634;DHT22;51043;52.406;9.690;2024-03-23T14:38:54;8.20;99.90
64634;DHT22;51043;52.406;9.690;2024-03-23T14:41:24;8.00;99.90
64634;DHT22;51043;52.406;9.690;2024-03-23T14:43:52;7.70;99.90
64634;DHT22;51043;52.406;9.690;2024-03-23T14:46:24;7.50;99.90
64634;DHT22;51043;52.406;9.690;2024-03-23T14:48:51;7.10;99.90
64634;DHT22;51043;52.406;9.690;2024-03-23T14:51:20;7.10;99.90
64634;DHT22;51043;52.406;9.690;2024-03-23T14:53:49;7.10;99.90
64634;DHT22;51043;52.406;9.690;2024-03-23T14:56:17;7.20;99.90
64634;DHT22;51043;52.406;9.690;2024-03-23T14:58:45;7.20;99.90
64634;DHT22;51043;52.406;9.690;2024-03-23T15:01:15;7.30;99.90
64634;DHT22;51043;52.406;9.690;2024-03-23T15:03:41;7.30;99.90
64634;DHT22;51043;52.406;9.690;2024-03-23T15:06:10;7.50;99.90
64634;DHT22;51043;52.406;9.690;2024-03-23T15:08:37;7.70;99.90
64634;DHT22;51043;52.406;9.690;2024-03-23T15:11:06;7.90;99.90
64634;DHT22;51043;52.406;9.690;2024-03-23T15:13:37;8.00;99.90
64634;DHT22;51043;52.406;9.690;2024-03-23T15:16:06;8.10;99.90
64634;DHT22;51043;52.406;9.690;2024-03-23T15:18:34;8.20;99.90
64634;DHT22;51043;52.406;9.690;2024-03-23T15:21:03;8.30;99.90
64634;DHT22;51043;52.406;9.690;2024-03-23T15:23:32;8.20;99.90
64634;DHT22;51043;52.406;9.690;2024-03-23T15:26:00;8.20;99.90
64634;DHT22;51043;52.406;9.690;2024-03-23T15:28:28;8.20;99.90
64634;DHT22;51043;52.406;9.690;2024-03-23T15:31:08;8.20;99.90
64634;DHT22;51043;52.406;9.690;2024-03-23T15:33:37;8.30;99.90
64634;DHT22;51043;52.406;9.690;2024-03-23T15:36:06;8.20;99.90
64634;DHT22;51043;52.406;9.690;2024-03-23T15:38:35;8.10;99.90
64634;DHT22;51043;52.406;9.690;2024-03-23T15:41:04;8.00;99.90
64634;DHT22;51043;52.406;9.690;2024-03-23T15:43:32;7.90;99.90
64634;DHT22;51043;52.406;9.690;2024-03-23T15:46:01;7.60;99.90
64634;DHT22;51043;52.406;9.690;2024-03-23T15:48:28;7.40;99.90
64634;DHT22;51043;52.406;9.690;2024-03-23T15:50:59;7.20;99.90
64634;DHT22;51043;52.406;9.690;2024-03-23T15:53:27;6.80;99.90
64634;DHT22;51043;52.406;9.690;2024-03-23T15:55:54;6.10;99.90
64634;DHT22;51043;52.406;9.690;2024-03-23T15:58:21;5.60;99.90
64634;DHT22;51043;52.406;9.690;2024-03-23T16:00:54;5.20;99.90
64634;DHT22;51043;52.406;9.690;2024-03-23T16:03:20;5.40;99.90
64634;DHT22;51043;52.406;9.690;2024-03-23T16:05:51;5.40;99.90
64634;DHT22;51043;52.406;9.690;2024-03-23T16:08:19;5.30;99.90
64634;DHT22;51043;52.406;9.690;2024-03-23T16:10:51;5.50;99.90
64634;DHT22;51043;52.406;9.690;2024-03-23T16:13:18;5.50;99.90
64634;DHT22;51043;52.406;9.690;2024-03-23T16:15:54;5.60;99.90
64634;DHT22;51043;52.406;9.690;2024-03-23T16:18:21;5.40;99.90
64634;DHT22;51043;52.406;9.690;2024-03-23T16:20:54;5.30;99.90
64634;DHT22;51043;52.406;9.690;2024-03-23T16:23:22;5.30;99.90
64634;DHT22;51043;52.406;9.690;2024-03-23T16:25:52;5.30;99.90
64634;DHT22;51043;52.406;9.690;2024-03-23T16:28:26;5.20;99.90
64634;DHT22;51043;52.406;9.690;2024-03-23T16:30:57;5.20;99.90
64634;DHT22;51043;52.406;9.690;2024-03-23T16:33:24;5.20;99.90
64634;DHT22;51043;52.406;9.690;2024-03-23T16:35:56;5.10;99.90
64634;DHT22;51043;52.406;9.690;2024-03-23T16:38:24;5.10;99.90
64634;DHT22;51043;52.406;9.690;2024-03-23T16:41:01;5.00;99.90
64634;DHT22;51043;52.406;9.690;2024-03-23T16:43:28;4.90;99.90